createdAt,value
2022-11-17T00:01:10.796Z,8.88
2022-11-17T00:07:03.324Z,9.00
2022-11-17T00:09:31.025Z,8.55
2022-11-17T00:11:58.455Z,9.80
2022-11-17T00:14:26.102Z,7.97
2022-11-17T00:16:53.602Z,8.15
2022-11-17T00:19:21.342Z,8.57
2022-11-17T00:21:48.747Z,8.85
2022-11-17T00:24:16.599Z,6.65
2022-11-17T00:26:43.934Z,7.93
2022-11-17T00:29:11.579Z,7.45
2022-11-17T00:31:38.968Z,6.80
2022-11-17T00:34:06.755Z,6.72
2022-11-17T00:40:04.684Z,7.32
2022-11-17T00:42:32.357Z,6.53
2022-11-17T00:44:59.736Z,6.85
2022-11-17T00:47:27.415Z,6.97
2022-11-17T00:49:54.768Z,7.47
2022-11-17T00:52:22.482Z,8.20
2022-11-17T00:54:49.847Z,6.97
2022-11-17T00:57:17.542Z,8.38
2022-11-17T00:59:44.957Z,6.85
2022-11-17T01:02:12.616Z,7.32
2022-11-17T01:04:39.998Z,6.80
2022-11-17T01:07:07.700Z,7.03
2022-11-17T01:09:35.205Z,7.70
2022-11-17T01:12:02.972Z,7.03
2022-11-17T01:14:43.515Z,6.90
2022-11-17T01:20:43.359Z,7.43
2022-11-17T01:23:11.033Z,6.85
2022-11-17T01:25:38.389Z,7.05
2022-11-17T01:28:06.176Z,6.47
2022-11-17T01:30:33.520Z,6.80
2022-11-17T01:33:01.162Z,6.35
2022-11-17T01:35:47.171Z,6.30
2022-11-17T01:38:33.350Z,6.03
2022-11-17T01:41:01.417Z,5.55
2022-11-17T01:43:45.504Z,5.90
2022-11-17T01:46:18.990Z,5.82
2022-11-17T01:48:47.259Z,5.90
2022-11-17T01:51:15.231Z,5.95
2022-11-17T01:53:43.320Z,6.75
2022-11-17T01:59:54.802Z,5.63
2022-11-17T02:02:22.726Z,5.97
2022-11-17T02:04:55.321Z,6.30
2022-11-17T02:07:25.625Z,5.95
2022-11-17T02:09:53.527Z,6.18
2022-11-17T02:12:23.506Z,6.35
2022-11-17T02:14:51.250Z,6.15
2022-11-17T02:17:19.526Z,6.10
2022-11-17T02:19:53.743Z,6.07
2022-11-17T02:22:40.314Z,6.05
2022-11-17T02:25:28.605Z,5.90
2022-11-17T02:27:56.428Z,5.90
2022-11-17T02:30:24.119Z,5.68
2022-11-17T02:33:00.776Z,5.75
2022-11-17T02:35:35.019Z,6.63
2022-11-17T02:38:21.091Z,5.82
2022-11-17T02:40:50.635Z,5.55
2022-11-17T02:43:20.256Z,6.03
2022-11-17T02:45:47.584Z,5.80
2022-11-17T02:48:27.833Z,5.05
2022-11-17T02:50:55.918Z,5.53
2022-11-17T02:53:24.264Z,5.57
2022-11-17T02:55:52.446Z,6.40
2022-11-17T02:58:20.193Z,5.32
2022-11-17T03:00:53.608Z,6.13
2022-11-17T03:03:36.260Z,5.60
2022-11-17T03:06:11.068Z,5.35
2022-11-17T03:08:45.303Z,8.00
2022-11-17T03:11:13.417Z,7.00
2022-11-17T03:13:47.144Z,6.95
2022-11-17T03:16:33.623Z,6.13
2022-11-17T03:19:04.340Z,6.47
2022-11-17T03:22:01.203Z,7.05
2022-11-17T03:24:35.881Z,7.25
2022-11-17T03:27:03.530Z,6.53
2022-11-17T03:29:32.608Z,7.10
2022-11-17T03:32:02.811Z,6.68
2022-11-17T03:34:35.731Z,6.20
2022-11-17T03:37:04.840Z,7.27
2022-11-17T03:39:36.900Z,6.80
2022-11-17T03:42:19.746Z,8.40
2022-11-17T03:44:51.682Z,8.52
2022-11-17T03:50:25.273Z,7.65
2022-11-17T03:52:53.506Z,7.90
2022-11-17T03:55:22.912Z,7.38
2022-11-17T03:57:59.582Z,8.30
2022-11-17T04:00:26.943Z,7.43
2022-11-17T04:02:55.566Z,7.38
2022-11-17T04:05:22.948Z,8.68
2022-11-17T04:07:50.619Z,7.88
2022-11-17T04:10:19.226Z,6.90
2022-11-17T04:12:48.012Z,8.43
2022-11-17T04:15:15.575Z,7.80
2022-11-17T04:21:05.587Z,7.43
2022-11-17T04:23:33.593Z,7.40
2022-11-17T04:26:01.920Z,7.47
2022-11-17T04:28:30.141Z,7.90
2022-11-17T04:30:57.510Z,7.75
2022-11-17T04:33:25.173Z,7.45
2022-11-17T04:35:52.593Z,7.38
2022-11-17T04:38:20.300Z,8.32
2022-11-17T04:40:47.746Z,7.30
2022-11-17T04:43:15.467Z,7.65
2022-11-17T04:45:42.879Z,7.65
2022-11-17T04:48:10.527Z,8.00
2022-11-17T04:50:37.881Z,7.63
2022-11-17T04:53:05.503Z,6.68
2022-11-17T04:55:32.824Z,7.47
2022-11-17T04:58:00.481Z,7.03
2022-11-17T05:00:27.914Z,6.03
2022-11-17T05:02:55.597Z,6.00
2022-11-17T05:05:22.983Z,6.82
2022-11-17T05:07:50.691Z,6.57
2022-11-17T05:10:18.168Z,7.10
2022-11-17T05:12:45.811Z,6.85
2022-11-17T05:15:13.254Z,7.18
2022-11-17T05:17:40.854Z,7.50
2022-11-17T05:20:08.513Z,6.22
2022-11-17T05:22:36.281Z,6.05
2022-11-17T05:25:04.426Z,6.25
2022-11-17T05:27:32.115Z,6.00
2022-11-17T05:29:59.717Z,8.63
2022-11-17T05:32:27.341Z,7.10
2022-11-17T05:34:54.718Z,6.22
2022-11-17T05:37:22.382Z,6.57
2022-11-17T05:39:49.786Z,7.40
2022-11-17T05:42:17.613Z,5.72
2022-11-17T05:44:45.175Z,6.97
2022-11-17T05:47:12.863Z,6.97
2022-11-17T05:49:40.251Z,6.47
2022-11-17T05:52:07.900Z,7.18
2022-11-17T05:54:35.213Z,6.50
2022-11-17T05:57:11.515Z,7.18
2022-11-17T05:59:44.638Z,6.78
2022-11-17T06:02:17.408Z,5.85
2022-11-17T06:04:44.766Z,5.97
2022-11-17T06:07:12.573Z,6.03
2022-11-17T06:09:41.027Z,5.40
2022-11-17T06:12:09.119Z,7.05
2022-11-17T06:14:36.482Z,5.90
2022-11-17T06:17:06.499Z,5.57
2022-11-17T06:19:38.380Z,6.03
2022-11-17T06:22:13.922Z,6.15
2022-11-17T06:24:42.855Z,5.88
2022-11-17T06:27:15.380Z,6.72
2022-11-17T06:29:44.822Z,5.72
2022-11-17T06:32:14.350Z,6.50
2022-11-17T06:34:42.965Z,5.63
2022-11-17T06:40:42.959Z,6.07
2022-11-17T06:43:10.653Z,6.72
2022-11-17T06:45:38.027Z,5.82
2022-11-17T06:48:06.456Z,6.97
2022-11-17T06:50:34.280Z,7.60
2022-11-17T06:53:03.076Z,6.40
2022-11-17T06:58:54.073Z,7.32
2022-11-17T07:05:08.037Z,6.35
2022-11-17T07:07:35.790Z,6.80
2022-11-17T07:10:03.341Z,6.68
2022-11-17T07:12:31.015Z,7.68
2022-11-17T07:14:58.468Z,6.03
2022-11-17T07:17:26.134Z,5.18
2022-11-17T07:19:53.605Z,6.45
2022-11-17T07:22:21.369Z,6.80
2022-11-17T07:24:48.904Z,7.05
2022-11-17T07:27:16.671Z,5.30
2022-11-17T07:29:44.111Z,5.28
2022-11-17T07:32:12.511Z,5.93
2022-11-17T07:34:40.394Z,5.70
2022-11-17T07:37:08.315Z,5.93
2022-11-17T07:39:35.815Z,6.10
2022-11-17T07:42:03.676Z,6.13
2022-11-17T07:44:31.350Z,5.65
2022-11-17T07:46:59.105Z,4.88
2022-11-17T07:49:27.018Z,5.00
2022-11-17T07:51:54.767Z,4.50
2022-11-17T07:54:22.195Z,4.93
2022-11-17T07:56:49.813Z,4.82
2022-11-17T07:59:21.189Z,4.43
2022-11-17T08:01:49.045Z,4.82
2022-11-17T08:04:16.498Z,4.28
2022-11-17T08:06:44.275Z,4.28
2022-11-17T08:09:11.715Z,4.88
2022-11-17T08:11:39.658Z,4.40
2022-11-17T08:14:07.051Z,6.20
2022-11-17T08:16:34.799Z,4.75
2022-11-17T08:19:02.193Z,4.50
2022-11-17T08:21:29.881Z,3.70
2022-11-17T08:23:57.322Z,4.43
2022-11-17T08:26:25.058Z,4.97
2022-11-17T08:28:58.065Z,4.72
2022-11-17T08:31:26.076Z,4.47
2022-11-17T08:33:53.449Z,5.03
2022-11-17T08:36:21.163Z,3.83
2022-11-17T08:38:48.641Z,4.95
2022-11-17T08:41:16.330Z,4.05
2022-11-17T08:43:43.785Z,4.72
2022-11-17T08:46:12.525Z,4.55
2022-11-17T08:48:40.308Z,6.28
2022-11-17T08:51:08.772Z,4.40
2022-11-17T08:53:36.202Z,5.55
2022-11-17T08:56:07.324Z,4.38
2022-11-17T08:58:41.328Z,4.35
2022-11-17T09:01:12.988Z,4.15
2022-11-17T09:03:41.723Z,7.40
2022-11-17T09:06:09.720Z,5.97
2022-11-17T09:08:46.776Z,6.75
2022-11-17T09:11:15.094Z,4.78
2022-11-17T09:13:42.447Z,4.43
2022-11-17T09:16:11.163Z,4.22
2022-11-17T09:18:39.330Z,3.90
2022-11-17T09:21:08.768Z,4.10
2022-11-17T09:23:36.501Z,3.88
2022-11-17T09:26:04.952Z,4.63
2022-11-17T09:28:32.563Z,4.70
2022-11-17T09:31:05.431Z,4.55
2022-11-17T09:33:32.918Z,4.20
2022-11-17T09:36:00.521Z,3.75
2022-11-17T09:38:27.895Z,2.50
2022-11-17T09:40:55.554Z,3.42
2022-11-17T09:43:27.667Z,3.28
2022-11-17T09:48:45.504Z,4.25
2022-11-17T09:51:16.403Z,4.35
2022-11-17T09:53:50.898Z,3.05
2022-11-17T09:56:18.549Z,4.57
2022-11-17T09:58:50.961Z,4.20
2022-11-17T10:01:19.708Z,4.13
2022-11-17T10:03:48.281Z,4.65
2022-11-17T10:06:20.565Z,3.83
2022-11-17T10:09:02.569Z,3.50
2022-11-17T10:11:32.492Z,5.07
2022-11-17T10:14:08.740Z,6.20
2022-11-17T10:16:37.488Z,5.22
2022-11-17T10:19:11.231Z,7.57
2022-11-17T10:21:39.049Z,5.25
2022-11-17T10:24:06.603Z,5.05
2022-11-17T10:26:45.433Z,4.95
2022-11-17T10:29:14.081Z,6.47
2022-11-17T10:31:43.472Z,3.85
2022-11-17T10:34:11.892Z,4.80
2022-11-17T10:36:47.750Z,4.32
2022-11-17T10:39:44.342Z,4.30
2022-11-17T10:42:29.924Z,4.50
2022-11-17T10:44:58.661Z,4.53
2022-11-17T10:47:27.923Z,3.83
2022-11-17T10:50:24.671Z,5.13
2022-11-17T10:52:53.143Z,3.30
2022-11-17T10:55:20.704Z,4.35
2022-11-17T10:57:50.266Z,4.70
2022-11-17T11:00:28.219Z,6.85
2022-11-17T11:03:06.563Z,5.43
2022-11-17T11:06:06.211Z,3.30
2022-11-17T11:08:55.363Z,3.22
2022-11-17T11:11:37.948Z,4.05
2022-11-17T11:14:10.638Z,4.70
2022-11-17T11:16:41.409Z,4.72
2022-11-17T11:19:14.446Z,3.30
2022-11-17T11:22:00.633Z,3.65
2022-11-17T11:24:27.973Z,3.95
2022-11-17T11:27:04.530Z,4.82
2022-11-17T11:29:37.799Z,4.47
2022-11-17T11:32:22.933Z,4.15
2022-11-17T11:38:13.652Z,3.88
2022-11-17T11:40:42.648Z,4.50
2022-11-17T11:43:38.194Z,5.07
2022-11-17T11:46:13.926Z,3.63
2022-11-17T11:48:41.748Z,4.80
2022-11-17T11:51:15.369Z,4.75
2022-11-17T11:53:49.061Z,4.00
2022-11-17T11:59:56.288Z,4.22
2022-11-17T12:02:38.646Z,4.03
2022-11-17T12:05:24.410Z,4.82
2022-11-17T12:08:10.803Z,4.13
2022-11-17T12:11:02.907Z,3.55
2022-11-17T12:13:33.379Z,3.95
2022-11-17T12:16:30.036Z,3.78
2022-11-17T12:18:57.674Z,3.97
2022-11-17T12:21:25.957Z,4.68
2022-11-17T12:24:03.840Z,4.03
2022-11-17T12:26:32.502Z,4.55
2022-11-17T12:32:34.175Z,4.10
2022-11-17T12:35:20.475Z,4.10
2022-11-17T12:37:48.011Z,3.47
2022-11-17T12:40:34.145Z,3.88
2022-11-17T12:43:16.889Z,8.93
2022-11-17T12:45:53.455Z,4.80
2022-11-17T12:48:37.777Z,5.68
2022-11-17T12:51:11.966Z,5.30
2022-11-17T12:53:39.314Z,5.57
2022-11-17T12:56:17.768Z,4.20
2022-11-17T12:58:48.211Z,5.28
2022-11-17T13:01:31.040Z,4.72
2022-11-17T13:04:05.032Z,5.75
2022-11-17T13:06:35.968Z,4.63
2022-11-17T13:09:05.424Z,5.32
2022-11-17T13:14:56.447Z,4.88
2022-11-17T13:17:34.858Z,3.75
2022-11-17T13:20:03.777Z,4.78
2022-11-17T13:22:31.458Z,5.03
2022-11-17T13:25:12.252Z,5.10
2022-11-17T13:27:47.976Z,5.05
2022-11-17T13:30:24.576Z,4.38
2022-11-17T13:32:52.372Z,4.13
2022-11-17T13:35:30.031Z,3.22
2022-11-17T13:38:01.821Z,8.85
2022-11-17T13:40:29.681Z,5.83
2022-11-17T13:42:58.335Z,5.35
2022-11-17T13:45:25.772Z,5.20
2022-11-17T13:47:53.621Z,5.25
2022-11-17T13:50:21.049Z,5.97
2022-11-17T13:53:00.852Z,5.15
2022-11-17T13:55:28.558Z,4.13
2022-11-17T13:58:01.407Z,4.65
2022-11-17T14:04:24.791Z,3.25
2022-11-17T14:06:52.764Z,4.75
2022-11-17T14:09:20.223Z,4.97
2022-11-17T14:11:47.908Z,5.13
2022-11-17T14:14:19.532Z,6.10
2022-11-17T14:20:24.714Z,3.90
2022-11-17T14:23:01.479Z,3.90
2022-11-17T14:25:29.359Z,11.15
2022-11-17T14:27:57.027Z,8.15
2022-11-17T14:30:24.469Z,11.60
2022-11-17T14:32:52.133Z,17.55
2022-11-17T14:35:19.660Z,5.50
2022-11-17T14:37:47.394Z,13.80
2022-11-17T14:40:15.829Z,5.93
2022-11-17T14:43:04.435Z,4.97
2022-11-17T14:45:31.852Z,5.60
2022-11-17T14:47:59.557Z,6.78
2022-11-17T14:50:26.969Z,5.80
2022-11-17T14:52:54.764Z,19.35
2022-11-17T14:55:22.132Z,8.13
2022-11-17T14:57:49.808Z,6.05
2022-11-17T15:00:20.602Z,5.72
2022-11-17T15:02:49.009Z,5.95
2022-11-17T15:05:16.541Z,5.55
2022-11-17T15:07:44.612Z,5.38
2022-11-17T15:10:11.992Z,4.72
2022-11-17T15:12:39.617Z,5.28
2022-11-17T15:15:08.850Z,5.00
2022-11-17T15:17:36.587Z,4.78
2022-11-17T15:20:04.690Z,5.75
2022-11-17T15:22:32.681Z,5.05
2022-11-17T15:25:00.182Z,4.15
2022-11-17T15:27:27.861Z,5.97
2022-11-17T15:29:55.261Z,5.25
2022-11-17T15:32:23.070Z,6.63
2022-11-17T15:34:50.474Z,4.70
2022-11-17T15:37:18.242Z,8.82
2022-11-17T15:43:17.667Z,7.35
2022-11-17T15:45:45.413Z,6.60
2022-11-17T15:48:18.766Z,5.10
2022-11-17T15:50:46.654Z,6.53
2022-11-17T15:53:14.115Z,6.38
2022-11-17T15:55:41.809Z,6.95
2022-11-17T15:58:09.217Z,7.07
2022-11-17T16:00:36.947Z,7.57
2022-11-17T16:03:05.405Z,5.90
2022-11-17T16:05:33.134Z,6.53
2022-11-17T16:08:00.534Z,6.75
2022-11-17T16:10:28.190Z,6.95
2022-11-17T16:12:55.603Z,6.63
2022-11-17T16:15:23.384Z,4.85
2022-11-17T16:17:50.837Z,4.65
2022-11-17T16:20:18.547Z,6.65
2022-11-17T16:22:46.049Z,5.45
2022-11-17T16:25:13.752Z,4.70
2022-11-17T16:27:41.186Z,5.18
2022-11-17T16:30:08.932Z,5.32
2022-11-17T16:32:36.349Z,5.57
2022-11-17T16:35:04.167Z,6.03
2022-11-17T16:37:31.620Z,5.82
2022-11-17T16:39:59.320Z,7.47
2022-11-17T16:42:26.853Z,7.32
2022-11-17T16:44:54.586Z,4.78
2022-11-17T16:47:21.995Z,7.30
2022-11-17T16:49:51.801Z,9.45
2022-11-17T16:52:19.447Z,6.57
2022-11-17T16:54:47.102Z,5.93
2022-11-17T16:57:14.509Z,5.85
2022-11-17T16:59:42.153Z,7.18
2022-11-17T17:02:12.406Z,6.57
2022-11-17T17:04:40.338Z,7.28
2022-11-17T17:07:07.737Z,10.40
2022-11-17T17:09:35.420Z,6.60
2022-11-17T17:12:02.881Z,9.18
2022-11-17T17:14:30.603Z,8.07
2022-11-17T17:16:58.117Z,8.77
2022-11-17T17:19:26.516Z,10.57
2022-11-17T17:21:53.905Z,7.88
2022-11-17T17:24:21.588Z,6.95
2022-11-17T17:26:48.959Z,8.45
2022-11-17T17:29:16.937Z,6.13
2022-11-17T17:31:44.557Z,6.18
2022-11-17T17:34:12.548Z,5.75
2022-11-17T17:39:53.969Z,8.65
2022-11-17T17:42:21.587Z,7.50
2022-11-17T17:44:49.326Z,8.80
2022-11-17T17:47:16.750Z,6.93
2022-11-17T17:49:44.507Z,7.55
2022-11-17T17:52:13.966Z,6.75
2022-11-17T17:54:41.813Z,6.93
2022-11-17T17:57:09.249Z,7.82
2022-11-17T17:59:37.007Z,8.57
2022-11-17T18:09:09.564Z,10.30
2022-11-17T18:11:37.410Z,6.70
2022-11-17T18:14:04.819Z,7.28
2022-11-17T18:16:33.190Z,9.05
2022-11-17T18:19:02.015Z,7.30
2022-11-17T18:21:29.690Z,6.22
2022-11-17T18:23:57.729Z,6.00
2022-11-17T18:26:29.234Z,5.80
2022-11-17T18:28:57.695Z,6.85
2022-11-17T18:31:28.012Z,4.80
2022-11-17T18:33:56.216Z,6.70
2022-11-17T18:36:35.019Z,6.20
2022-11-17T18:39:02.878Z,7.53
2022-11-17T18:41:30.933Z,8.02
2022-11-17T18:43:58.513Z,7.72
2022-11-17T18:46:29.047Z,6.50
2022-11-17T18:52:31.473Z,7.72
2022-11-17T18:54:59.305Z,7.93
2022-11-17T18:57:26.877Z,8.55
2022-11-17T18:59:54.545Z,6.97
2022-11-17T19:02:21.928Z,7.82
2022-11-17T19:12:16.391Z,6.82
2022-11-17T19:14:43.816Z,6.60
2022-11-17T19:17:11.563Z,6.60
2022-11-17T19:19:38.922Z,7.28
2022-11-17T19:22:06.669Z,6.38
2022-11-17T19:24:34.140Z,7.13
2022-11-17T19:27:01.790Z,7.00
2022-11-17T19:33:01.525Z,6.63
2022-11-17T19:35:29.454Z,8.20
2022-11-17T19:37:56.846Z,7.47
2022-11-17T19:40:24.609Z,6.65
2022-11-17T19:42:52.005Z,6.78
2022-11-17T19:45:19.683Z,6.75
2022-11-17T19:47:47.093Z,6.63
2022-11-17T19:50:14.769Z,7.85
2022-11-17T19:52:42.216Z,8.30
2022-11-17T19:55:09.983Z,6.47
2022-11-17T19:57:37.344Z,5.30
2022-11-17T20:00:05.105Z,5.68
2022-11-17T20:05:59.233Z,6.20
2022-11-17T20:08:28.290Z,5.35
2022-11-17T20:11:06.092Z,6.07
2022-11-17T20:13:34.097Z,6.13
2022-11-17T20:19:33.391Z,6.53
2022-11-17T20:22:01.100Z,6.00
2022-11-17T20:24:28.500Z,7.75
2022-11-17T20:30:18.147Z,6.50
2022-11-17T20:32:46.018Z,6.20
2022-11-17T20:38:49.191Z,5.80
2022-11-17T20:41:17.891Z,6.18
2022-11-17T20:43:47.279Z,5.57
2022-11-17T20:46:15.034Z,6.47
2022-11-17T20:52:24.620Z,6.68
2022-11-17T20:55:06.042Z,6.22
2022-11-17T20:57:33.748Z,5.50
2022-11-17T21:07:15.698Z,6.57
2022-11-17T21:09:43.175Z,6.63
2022-11-17T21:12:12.002Z,6.50
2022-11-17T21:18:01.551Z,6.38
2022-11-17T21:20:29.320Z,7.75
2022-11-17T21:22:56.715Z,7.03
2022-11-17T21:25:24.444Z,7.45
2022-11-17T21:27:51.886Z,7.20
2022-11-17T21:30:19.601Z,8.75
2022-11-17T21:32:47.016Z,6.93
2022-11-17T21:35:14.814Z,7.57
2022-11-17T21:37:42.174Z,8.98
2022-11-17T21:40:09.991Z,9.27
2022-11-17T21:42:37.358Z,9.85
2022-11-17T21:45:05.432Z,9.27
2022-11-17T21:47:32.824Z,8.70
2022-11-17T21:50:00.535Z,7.88
2022-11-17T21:52:27.997Z,8.85
2022-11-17T21:54:55.786Z,7.78
2022-11-17T21:57:23.333Z,8.30
2022-11-17T21:59:51.028Z,8.27
2022-11-17T22:02:18.399Z,7.53
2022-11-17T22:08:08.079Z,8.30
2022-11-17T22:14:12.252Z,7.68
2022-11-17T22:16:41.581Z,8.63
2022-11-17T22:19:09.134Z,8.30
2022-11-17T22:21:37.676Z,10.20
2022-11-17T22:24:07.543Z,12.57
2022-11-17T22:26:38.738Z,9.93
2022-11-17T22:29:06.900Z,10.13
2022-11-17T22:31:34.715Z,8.18
2022-11-17T22:34:02.181Z,7.68
2022-11-17T22:36:30.186Z,7.07
2022-11-17T22:38:57.600Z,8.80
2022-11-17T22:41:25.317Z,8.43
2022-11-17T22:43:55.908Z,13.18
2022-11-17T22:46:25.143Z,13.68
2022-11-17T22:48:52.807Z,10.70
2022-11-17T22:51:20.845Z,8.07
2022-11-17T22:53:48.240Z,7.85
2022-11-17T22:56:15.901Z,7.47
2022-11-17T22:58:46.679Z,7.03
2022-11-17T23:01:17.595Z,7.05
2022-11-17T23:03:47.813Z,6.22
2022-11-17T23:06:15.822Z,7.97
2022-11-17T23:08:43.228Z,6.60
2022-11-17T23:11:35.593Z,6.55
2022-11-17T23:13:58.274Z,6.57
2022-11-17T23:16:25.938Z,6.00
2022-11-17T23:18:54.194Z,6.93
2022-11-17T23:21:22.382Z,6.25
2022-11-17T23:23:49.741Z,6.43
2022-11-17T23:26:17.455Z,6.68
2022-11-17T23:28:44.846Z,6.32
2022-11-17T23:31:13.643Z,5.80
2022-11-17T23:33:42.514Z,5.60
2022-11-17T23:36:17.512Z,5.90
2022-11-17T23:38:45.393Z,7.20
2022-11-17T23:41:14.061Z,5.85
2022-11-17T23:43:41.698Z,7.05
2022-11-17T23:46:10.580Z,6.05
2022-11-17T23:48:38.079Z,6.22
2022-11-17T23:51:06.612Z,5.85
2022-11-17T23:53:34.502Z,5.40
2022-11-17T23:56:02.252Z,5.45
2022-11-17T23:58:29.814Z,6.43
